Blackwell, Wisconsin
Current Conditions -  °F | °C
As of 2:54 AM on Sunday 21 Dec 2014 (Local Time) from KIMT Reporting Station
Haze Haze  
Wind Chill: 19°   Ceiling: 2800
Heat Index: 26°   Visibility: 5mi
Dew Point: 23°   Wind: 6mph
Humidity: 88%   Direction: 130°SE
Pressure: 30.13"   Gusts: NA
Location:  45.5665°N, 88.6366°W
Report Text: KIMT 210854Z AUTO 13005KT 5SM BR OVC028 M03/M05 A3013 RMK AO2 SLP221 T10331050 58005
Loading
Personal Weather Stations






























Interactive Weather Map New forecast layout! Learn more

10-Day Weather Forecast

Advertisements
Track Severe Weather on mobile